DIRECCIÓN GENERAL DE AERONÁUTICA CIVIL
DIRECCIÓN METEOROLÓGICA DE CHILE
INFORMACIÓN METAR Y TAF

FIR SANTIAGO

Estación: SCSE
METAR SCSE 221900Z 30005KT 4000 DZ BKN011 SCT017 11/10 Q1019=

TAF SCSE 221640Z 2218/2318 VRB02KT 9999 BKN018 TX14/2219Z TN09/2310Z BECMG 2218/2219 SCT013 BKN017 TEMPO 2218/2222 SCT018 BECMG 2306/2308 VRB02KT BKN030 BECMG 2316/2318 27010KT=

Estación: SCER
METAR SCER 161100Z 00000KT 7000 OVC014 12/10 Q1015=

TAF SCER NIL=

Estación: SCRD
METAR SCRD 221900Z 34011KT 2500 BR OVC006 09/08 Q1019=

TAF AMD SCRD 221436Z 2215/2224 VRB02KT 3000 BR OVC008 TX13/2218Z TN09 /2215Z TEMPO 2215/2217 0800 FG OVC002 BECMG 2217/2219 30010KT 5000 BR BKN010=

Estación: SCVM
METAR SCVM 221900Z 35012KT 5000 HZ OVC010 11/09 Q1019=

TAF SCVM 221640Z 2218/2318 33008KT 5000 HZ OVC010 TX12/2219Z TN09/ 2310Z BECMG 2218/2220 8000 BKN010 BECMG 2301/2303 VRB02KT BKN020 OVC050 BECMG 2308/2310 7000 -SHRA BKN020 OVC040 TEMPO 2310/2314 5000 SHRA=

Estación: SCTB
SPECI SCTB 221910Z 23008KT 4000 HZ SCT060 BKN220 12/07 Q1017=

TAF SCTB 221110Z 2212/2224 VRB02KT 8000 SKC TX15/2218Z TN05/2212Z BECMG 2217/2219 20008KT 5000 HZ NSC=

Estación: SCEL
METAR SCEL 221900Z 16016KT 6000 NSC 12/06 Q1016 NOSIG=

TAF COR SCEL 221725Z 2218/2318 18013KT 5000 HZ NSC TX15/2219Z TN08/ 2 310Z BECMG 2219/2221 8000 NSC BECMG 2220/2222 9999 SCT050 BKN100 BECMG 2307/2309 VRB02KT BKN020 OVC050 TEMPO 2306/2309 01008KT 7000 - SHRA BECMG 2311/2313 7000 -SHRA=

Estación: SCSN
METAR SCSN 221900Z 34012KT 6000 OVC024 12/08 Q1019=

TAF SCSN 221109Z 2212/2224 VRB02KT 8000 OVC020 TX14/2218Z TN10/2212Z BECMG 2215/2217 30010KT BKN025 BECMG 2220/2222 SCT030 BKN050=

Estación: SCRG
METAR SCRG 211900Z 18005KT 2500 BR OVC015 ///// Q1017=

TAF SCRG 221110Z 2212/2224 VRB02KT 3000 BR SCT008 TX12/2218Z TN05/ 2212Z TEMPO 2212/2215 0800 FG BKN005 BECMG 2215/2217 20007KT 8000 NSC =

Estación: SCIC
METAR SCIC 221900Z 35008KT 4000 HZ OVC015 11/08 Q1017=

TAF SCIC 221111Z 2212/2224 13004KT 6000 BKN013 TX12/2219Z TN09/2212Z TEMPO 2212/2214 3000 BR BKN008 BECMG 2215/2217 20008KT 9999 BKN020=

Estación: SCCH
METAR SCCH 221900Z 01010KT 5000 HZ BKN020 OVC070 12/08 Q1016=

TAF SCCH 221113Z 2212/2224 VRB02KT 9999 OVC012 TX13/2218Z TN07/2212Z BECMG 2215/2217 01008KT SCT015 BKN030 BECMG 2217/2219 BKN010 OVC020 TEMPO 2219/2222 7000 SHRA=

Estación: SCIE
METAR SCIE 221900Z 02018KT 9999 BKN007 OVC015 12/10 Q1014=

TAF SCIE 221643Z 2218/2318 01015KT 9999 OVC020 TX14/2218Z TN09/2310Z TEMPO 2218/2221 7000 SHRA BKN010 OVC020 BECMG 2301/2303 VRB02KT 5000 -SHRA BECMG 2305/2307 01008KT 7000 -SHRA BKN015 OVC025 BECMG 2314/ 2316 9999 SCT020 BKN045=

Estación: SCGE
METAR SCGE 221900Z 36015KT 6000 SCT010 BKN015 OVC050 12/08 Q1014=

TAF AMD SCGE 221416Z 2214/2224 01010KT 5000 BR OVC008 TX12/2218Z TN09 /2215Z TEMPO 2214/2216 0800 FG OVC003 BECMG 2216/2218 7000 BKN010 OVC030 BECMG 2220/2022 7000 SHRA=


Volver